Wilmington, NC

12:16 PM EDT on October 25, 2014 (GMT -0400)
NC STATE PORTS | Change Station
CLOSE
Current Station
Personal Weather Station
Location: WILMINGTON, NC
Elevation: 12 ft
Nearby Weather Stations

Elev 12 ft 34.20 °N, 77.95 °W | Updated 42 seconds ago

Clear
Clear
69.2 °F
Feels Like 69.2 °F
N
6.5
Wind Variable Wind from NW
Gusts 9.8 mph

Today
High -- | Low -- °F
--% Chance of Precip.
Yesterday
High -- | Low -- °F
Precip. -- in
7:25 AM 6:25 PM
Waxing Crescent, 3% visible
Pressure 29.98 in
Visibility 10.0 miles
Clouds Clear
Dew Point 51 °F
Humidity 52%
Rainfall -999.00 in
Snow Depth Not available.
UV 5 out of 12
Pollen 2.40 out of 12
Air Quality Not available.
Flu Activity Local Activity
METAR KILM 251553Z AUTO 34004KT 10SM CLR 22/08 A2998 RMK AO2 SLP151 T02170083

More Conditions Fewer Conditions

Pressure 29.98 in
Visibility 10.0 miles
Clouds Clear
Dew Point 51 °F
Humidity 52%
Rainfall -999.00 in
Snow Depth Not available.
UV 5 out of 12
Pollen 2.40 out of 12
Air Quality Not available.
Flu Activity Local Activity
METAR KILM 251553Z AUTO 34004KT 10SM CLR 22/08 A2998 RMK AO2 SLP151 T02170083

More Conditions Fewer Conditions

10-Day Weather Forecast

Almanac

Astronomy

Oct. 25, 2014 Rise Set
Actual Time 7:25 AM EDT 6:25 PM EDT
Civil Twilight 6:59 AM EDT 6:51 PM EDT
Nautical Twilight 6:30 AM EDT 7:20 PM EDT
Astronomical Twilight 6:01 AM EDT 7:49 PM EDT
Moon 8:59 AM EDT 7:51 PM EDT
Length of Visible Light 11h 51m
Length of Day
11h 00m
Tomorrow will be 1m 57s shorter.
Waxing Crescent, 3% of the Moon is Illuminated
Today
Waxing Crescent
Oct 30
First Quarter
Nov 6
Full
Nov 14
Last Quarter
Nov 22
New

Today's Extremes

State Highs State Lows

Community

WunderPhotos

Upload Photos

1,764,887 photos uploaded!

Nearby

Snow Depth

Station Depth Elevation
No new snow has been reported.

Earthquake Activity

City Distance Mag. Time & Date
No recent earthquake activity has been reported nearby.
Minimum magnitude displayed is 2.5.

Coastal Water Temperatures

Place Temperature
Johnny Mercer Pier, Wrightsville Beach, NC 72.0 °F
Beaufort, NC 66.9 °F
Springmaid Pier, SC 69.1 °F

Nearby Weather Stations